Ana Sayfa
METAR-TAF:

METAR-TAF

Havaalanları :

Gran Canaria Havalimanı

Gran Canaria, İspanya

Enlem: 27-56N, Boylam: 015-23W, yükseklik: 23 m

Güncel hava durumu gözlemi

Rapor saat 22:00 UTC de 44 dakika önce yapıldı.
Rüzgar kuzeydan 16 kt
Sıcaklık 18°C
Nem 64%
Basınç 1019 hPa
Görüş mesafesi 10 km veya daha fazla
2500 ft yükseklikte az bulutlu
3500 ft yükseklikte parçalı bulutlu

METAR: GCLP 192200Z 01016KT 9999 FEW025 SCT035 18/11 Q1019 NOSIG

Saat: 22:44 (22:44 UTC)

Tahmin

Rapor saat 20:00 UTC de 2 saat ve 44 dakika önce yapıldı.
Ayın 19'si saat 21 UTC'den ayın 20'si saat 21 UTC'ye kadar geçerli Tahmin
Rüzgar kuzeydan 22 kt
Görüş mesafesi 10 km veya daha fazla
3000 ft yükseklikte parçalı bulutlu

TAF: GCLP 192000Z 1921/2021 01022KT 9999 SCT030 TX22/2014Z TN16/2006Z

4.000'den fazla havaalanı için hava durumu gözlemleri ve tahminleri (METAR ve TAF raporları).

Kullanılabilir istasyonlar harita üzerinde sarı ve kırmızı noktalarla gösterilir.

İstasyonun adını görmek için fareyi noktanın üzerinde gezdirin.

Sonrasında hava gözlem ve tahminlerini görmek için tıklayın.

Haritayı değiştirmek için: yaklaştırmak için siyah artı işaretli yeşil düğmeye ve uzaklaştırmak için de eksi işaretli düğmeye hızla tıklayın; bitişik haritalar için yeşil okları kullanın.


METAR-TAF: